createdAt,value
2018-10-03T00:00:21.984Z,2.45
2018-10-03T00:02:49.551Z,2.37
2018-10-03T00:05:17.232Z,2.30
2018-10-03T00:07:44.750Z,3.20
2018-10-03T00:10:12.231Z,2.45
2018-10-03T00:12:39.875Z,3.40
2018-10-03T00:15:07.383Z,2.75
2018-10-03T00:17:34.934Z,2.25
2018-10-03T00:20:02.461Z,2.87
2018-10-03T00:22:30.061Z,2.60
2018-10-03T00:24:57.562Z,3.00
2018-10-03T00:27:25.142Z,2.45
2018-10-03T00:29:52.653Z,2.50
2018-10-03T00:32:20.154Z,2.72
2018-10-03T00:34:47.731Z,2.52
2018-10-03T00:37:15.231Z,2.50
2018-10-03T00:39:42.798Z,2.90
2018-10-03T00:42:10.372Z,2.37
2018-10-03T00:44:37.914Z,2.30
2018-10-03T00:47:05.502Z,2.47
2018-10-03T00:49:33.101Z,2.20
2018-10-03T00:52:00.736Z,2.80
2018-10-03T00:54:28.299Z,2.60
2018-10-03T00:56:55.764Z,2.77
2018-10-03T00:59:23.304Z,2.62
2018-10-03T01:01:50.769Z,2.40
2018-10-03T01:04:18.283Z,2.20
2018-10-03T01:06:45.878Z,2.42
2018-10-03T01:09:13.411Z,2.58
2018-10-03T01:11:40.974Z,2.55
2018-10-03T01:14:08.421Z,2.83
2018-10-03T01:16:35.997Z,2.65
2018-10-03T01:19:03.537Z,3.00
2018-10-03T01:21:31.171Z,2.83
2018-10-03T01:23:58.687Z,3.27
2018-10-03T01:26:26.241Z,2.50
2018-10-03T01:28:53.728Z,2.75
2018-10-03T01:31:21.284Z,2.90
2018-10-03T01:33:48.742Z,2.55
2018-10-03T01:36:16.266Z,3.52
2018-10-03T01:38:43.757Z,2.58
2018-10-03T01:41:11.377Z,2.60
2018-10-03T01:43:39.017Z,2.40
2018-10-03T01:46:06.569Z,3.05
2018-10-03T01:48:34.155Z,2.50
2018-10-03T01:51:01.929Z,2.55
2018-10-03T01:53:29.493Z,2.65
2018-10-03T01:55:56.966Z,2.80
2018-10-03T01:58:24.498Z,2.65
2018-10-03T02:00:51.987Z,2.60
2018-10-03T02:03:19.469Z,2.58
2018-10-03T02:05:47.007Z,2.40
2018-10-03T02:08:14.505Z,2.20
2018-10-03T02:10:42.342Z,2.45
2018-10-03T02:13:09.836Z,2.20
2018-10-03T02:15:37.401Z,2.20
2018-10-03T02:18:04.986Z,2.50
2018-10-03T02:20:32.567Z,2.90
2018-10-03T02:23:00.046Z,2.40
2018-10-03T02:25:27.617Z,2.55
2018-10-03T02:27:55.160Z,2.52
2018-10-03T02:30:22.627Z,2.60
2018-10-03T02:32:50.196Z,2.60
2018-10-03T02:35:17.702Z,2.90
2018-10-03T02:37:45.252Z,2.50
2018-10-03T02:40:12.813Z,2.67
2018-10-03T02:42:40.455Z,2.42
2018-10-03T02:45:08.042Z,2.40
2018-10-03T02:47:35.640Z,2.10
2018-10-03T02:50:03.172Z,2.20
2018-10-03T02:52:30.668Z,2.30
2018-10-03T02:54:58.273Z,2.00
2018-10-03T02:57:25.707Z,3.08
2018-10-03T02:59:53.247Z,2.40
2018-10-03T03:02:20.805Z,2.20
2018-10-03T03:04:48.351Z,2.50
2018-10-03T03:07:15.911Z,2.22
2018-10-03T03:09:43.391Z,2.27
2018-10-03T03:12:10.874Z,2.60
2018-10-03T03:14:38.480Z,2.50
2018-10-03T03:17:06.118Z,2.50
2018-10-03T03:19:33.719Z,2.25
2018-10-03T03:22:01.375Z,2.33
2018-10-03T03:24:28.954Z,2.30
2018-10-03T03:26:56.493Z,2.27
2018-10-03T03:29:24.084Z,2.83
2018-10-03T03:31:51.546Z,2.10
2018-10-03T03:34:19.101Z,2.25
2018-10-03T03:36:46.584Z,2.80
2018-10-03T03:39:14.090Z,2.30
2018-10-03T03:41:41.675Z,2.30
2018-10-03T03:44:09.237Z,2.40
2018-10-03T03:46:36.794Z,2.30
2018-10-03T03:49:04.450Z,2.58
2018-10-03T03:51:32.045Z,2.12
2018-10-03T03:53:59.526Z,2.15
2018-10-03T03:56:27.073Z,2.62
2018-10-03T03:58:54.615Z,2.15
2018-10-03T04:01:22.153Z,2.87
2018-10-03T04:03:49.607Z,2.70
2018-10-03T04:06:17.209Z,2.60
2018-10-03T04:08:44.757Z,2.67
2018-10-03T04:11:12.357Z,2.90
2018-10-03T04:13:39.840Z,2.50
2018-10-03T04:16:07.520Z,3.40
2018-10-03T04:18:35.028Z,2.12
2018-10-03T04:21:02.601Z,2.45
2018-10-03T04:23:30.101Z,2.75
2018-10-03T04:25:57.634Z,2.40
2018-10-03T04:28:25.193Z,2.50
2018-10-03T04:30:52.662Z,2.50
2018-10-03T04:33:20.299Z,2.22
2018-10-03T04:35:47.912Z,2.62
2018-10-03T04:38:15.390Z,2.60
2018-10-03T04:40:42.954Z,2.50
2018-10-03T04:43:10.529Z,4.00
2018-10-03T04:45:38.102Z,3.37
2018-10-03T04:48:05.626Z,3.47
2018-10-03T04:50:33.165Z,2.30
2018-10-03T04:53:00.962Z,2.55
2018-10-03T04:55:28.529Z,2.12
2018-10-03T04:57:56.013Z,2.37
2018-10-03T05:00:23.636Z,2.15
2018-10-03T05:02:51.243Z,2.33
2018-10-03T05:05:18.822Z,1.70
2018-10-03T05:07:46.404Z,2.10
2018-10-03T05:10:13.911Z,2.60
2018-10-03T05:12:41.446Z,2.30
2018-10-03T05:15:09.050Z,2.22
2018-10-03T05:17:36.590Z,2.35
2018-10-03T05:20:04.200Z,2.37
2018-10-03T05:22:31.671Z,1.98
2018-10-03T05:24:59.298Z,3.15
2018-10-03T05:27:26.826Z,2.20
2018-10-03T05:29:54.393Z,2.20
2018-10-03T05:32:21.874Z,2.40
2018-10-03T05:34:49.446Z,2.00
2018-10-03T05:37:17.027Z,2.30
2018-10-03T05:39:44.700Z,2.30
2018-10-03T05:42:12.242Z,2.15
2018-10-03T05:44:39.733Z,2.30
2018-10-03T05:47:07.332Z,2.45
2018-10-03T05:49:34.821Z,2.25
2018-10-03T05:52:02.419Z,2.20
2018-10-03T05:54:29.994Z,2.00
2018-10-03T05:56:57.598Z,2.25
2018-10-03T05:59:25.090Z,2.10
2018-10-03T06:01:52.617Z,2.20
2018-10-03T06:04:20.179Z,2.08
2018-10-03T06:06:47.706Z,2.02
2018-10-03T06:09:15.293Z,2.10
2018-10-03T06:11:42.919Z,2.47
2018-10-03T06:14:11.134Z,1.67
2018-10-03T06:16:38.644Z,2.10
2018-10-03T06:19:06.262Z,2.20
2018-10-03T06:21:34.306Z,2.20
2018-10-03T06:24:02.091Z,1.95
2018-10-03T06:26:29.619Z,2.00
2018-10-03T06:28:57.160Z,1.87
2018-10-03T06:31:24.724Z,2.30
2018-10-03T06:33:52.304Z,2.08
2018-10-03T06:36:19.835Z,2.00
2018-10-03T06:38:47.458Z,1.80
2018-10-03T06:41:14.954Z,2.10
2018-10-03T06:43:42.740Z,2.10
2018-10-03T06:46:10.361Z,1.60
2018-10-03T06:48:38.107Z,2.40
2018-10-03T06:51:05.670Z,1.80
2018-10-03T06:53:33.335Z,2.00
2018-10-03T06:56:00.820Z,2.58
2018-10-03T06:58:28.333Z,1.92
2018-10-03T07:00:55.967Z,2.27
2018-10-03T07:03:23.515Z,2.20
2018-10-03T07:05:51.114Z,2.33
2018-10-03T07:08:18.641Z,2.33
2018-10-03T07:10:46.221Z,2.50
2018-10-03T07:13:13.876Z,2.70
2018-10-03T07:15:41.409Z,2.12
2018-10-03T07:18:08.942Z,2.62
2018-10-03T07:20:36.618Z,2.45
2018-10-03T07:23:04.171Z,3.10
2018-10-03T07:25:31.765Z,2.35
2018-10-03T07:27:59.305Z,2.40
2018-10-03T07:30:26.933Z,2.55
2018-10-03T07:32:54.459Z,2.55
2018-10-03T07:35:22.079Z,2.55
2018-10-03T07:37:49.687Z,2.25
2018-10-03T07:40:17.180Z,2.67
2018-10-03T07:42:44.871Z,2.90
2018-10-03T07:45:12.443Z,2.58
2018-10-03T07:47:40.054Z,3.22
2018-10-03T07:50:08.062Z,2.35
2018-10-03T07:52:35.760Z,2.65
2018-10-03T07:55:03.383Z,2.70
2018-10-03T07:57:30.903Z,2.72
2018-10-03T07:59:58.526Z,3.10
2018-10-03T08:02:26.074Z,2.67
2018-10-03T08:04:53.708Z,2.92
2018-10-03T08:07:21.217Z,2.75
2018-10-03T08:09:48.866Z,2.62
2018-10-03T08:12:16.407Z,2.58
2018-10-03T08:14:44.003Z,3.05
2018-10-03T08:17:11.540Z,2.80
2018-10-03T08:19:39.162Z,2.50
2018-10-03T08:22:06.685Z,3.00
2018-10-03T08:24:34.234Z,2.27
2018-10-03T08:27:02.114Z,2.87
2018-10-03T08:29:29.621Z,3.00
2018-10-03T08:31:57.284Z,2.65
2018-10-03T08:34:24.864Z,2.87
2018-10-03T08:36:52.516Z,3.10
2018-10-03T08:39:20.134Z,3.02
2018-10-03T08:41:47.754Z,3.10
2018-10-03T08:44:15.430Z,2.92
2018-10-03T08:46:42.962Z,3.37
2018-10-03T08:49:10.562Z,3.52
2018-10-03T08:51:38.234Z,3.17
2018-10-03T08:54:05.979Z,3.52
2018-10-03T08:56:33.486Z,3.30
2018-10-03T08:59:01.123Z,4.65
2018-10-03T09:01:28.758Z,4.65
2018-10-03T09:03:56.334Z,4.15
2018-10-03T09:06:23.897Z,3.52
2018-10-03T09:08:51.492Z,4.50
2018-10-03T09:11:19.013Z,4.42
2018-10-03T09:13:46.606Z,4.50
2018-10-03T09:16:14.151Z,3.80
2018-10-03T09:18:41.804Z,4.20
2018-10-03T09:21:09.388Z,4.30
2018-10-03T09:23:36.898Z,3.70
2018-10-03T09:26:04.574Z,5.12
2018-10-03T09:28:32.811Z,4.35
2018-10-03T09:31:00.415Z,4.60
2018-10-03T09:33:27.989Z,5.22
2018-10-03T09:35:55.639Z,6.00
2018-10-03T09:38:23.162Z,5.72
2018-10-03T09:40:50.835Z,5.60
2018-10-03T09:43:18.465Z,4.90
2018-10-03T09:45:46.126Z,5.75
2018-10-03T09:48:13.677Z,5.30
2018-10-03T09:50:41.258Z,4.72
2018-10-03T09:53:09.840Z,4.87
2018-10-03T09:55:37.489Z,5.28
2018-10-03T09:58:05.222Z,4.83
2018-10-03T10:00:38.456Z,4.92
2018-10-03T10:03:06.265Z,4.90
2018-10-03T10:05:33.910Z,4.83
2018-10-03T10:08:01.635Z,5.30
2018-10-03T10:10:29.238Z,4.78
2018-10-03T10:12:56.883Z,5.25
2018-10-03T10:15:25.952Z,5.00
2018-10-03T10:17:53.599Z,5.22
2018-10-03T10:20:21.221Z,5.42
2018-10-03T10:22:48.827Z,5.35
2018-10-03T10:25:16.510Z,5.45
2018-10-03T10:27:44.053Z,5.30
2018-10-03T10:30:11.681Z,4.35
2018-10-03T10:32:39.327Z,4.90
2018-10-03T10:35:06.907Z,4.90
2018-10-03T10:37:34.522Z,5.08
2018-10-03T10:40:02.281Z,4.60
2018-10-03T10:42:29.937Z,4.37
2018-10-03T10:44:57.553Z,3.85
2018-10-03T10:47:25.297Z,4.83
2018-10-03T10:49:52.873Z,4.47
2018-10-03T10:52:20.587Z,4.37
2018-10-03T10:54:48.243Z,4.90
2018-10-03T10:57:15.781Z,4.55
2018-10-03T10:59:43.508Z,4.42
2018-10-03T11:02:11.157Z,4.22
2018-10-03T11:04:39.084Z,4.85
2018-10-03T11:07:07.166Z,4.85
2018-10-03T11:09:34.780Z,3.80
2018-10-03T11:12:03.138Z,4.75
2018-10-03T11:14:31.833Z,4.90
2018-10-03T11:16:59.675Z,4.70
2018-10-03T11:19:28.191Z,5.67
2018-10-03T11:21:56.338Z,3.98
2018-10-03T11:24:24.076Z,4.60
2018-10-03T11:26:51.516Z,4.83
2018-10-03T11:29:19.189Z,4.35
2018-10-03T11:31:46.818Z,4.45
2018-10-03T11:34:14.423Z,5.40
2018-10-03T11:36:44.347Z,4.97
2018-10-03T11:39:13.455Z,5.58
2018-10-03T11:41:41.557Z,4.30
2018-10-03T11:44:12.105Z,4.90
2018-10-03T11:47:58.707Z,5.65
2018-10-03T12:12:07.099Z,4.78
2018-10-03T12:14:39.572Z,4.53
2018-10-03T12:17:19.484Z,4.25
2018-10-03T12:19:47.277Z,4.40
2018-10-03T12:22:14.876Z,5.03
2018-10-03T12:24:42.564Z,4.40
2018-10-03T12:27:10.158Z,4.85
2018-10-03T12:29:37.855Z,14.18
2018-10-03T12:32:05.492Z,4.78
2018-10-03T12:34:33.123Z,4.55
2018-10-03T12:37:00.909Z,4.58
2018-10-03T12:39:28.441Z,4.70
2018-10-03T12:41:56.188Z,4.92
2018-10-03T12:44:23.779Z,4.95
2018-10-03T12:46:51.373Z,4.90
2018-10-03T12:49:19.137Z,5.17
2018-10-03T12:51:46.757Z,5.10
2018-10-03T12:54:14.434Z,5.70
2018-10-03T12:56:41.987Z,5.28
2018-10-03T12:59:09.646Z,5.12
2018-10-03T13:01:37.190Z,6.15
2018-10-03T13:04:04.997Z,5.55
2018-10-03T13:06:32.631Z,5.83
2018-10-03T13:09:00.291Z,5.50
2018-10-03T13:11:27.863Z,6.45
2018-10-03T13:13:55.579Z,5.67
2018-10-03T13:16:23.214Z,4.90
2018-10-03T13:18:50.898Z,5.90
2018-10-03T13:21:18.571Z,6.20
2018-10-03T13:23:46.168Z,5.47
2018-10-03T13:26:13.849Z,5.15
2018-10-03T13:28:41.497Z,4.97
2018-10-03T13:31:09.235Z,5.40
2018-10-03T13:33:36.861Z,5.45
2018-10-03T13:36:04.477Z,4.80
2018-10-03T13:38:32.118Z,5.42
2018-10-03T13:40:59.801Z,4.55
2018-10-03T13:43:27.429Z,5.75
2018-10-03T13:45:55.599Z,4.95
2018-10-03T13:48:23.163Z,5.28
2018-10-03T13:50:50.911Z,5.37
2018-10-03T13:53:18.868Z,5.00
2018-10-03T13:55:49.981Z,5.70
2018-10-03T13:58:18.562Z,5.28
2018-10-03T14:00:52.825Z,5.83
2018-10-03T14:03:20.449Z,5.90
2018-10-03T14:05:48.084Z,5.62
2018-10-03T14:08:15.782Z,4.72
2018-10-03T14:10:43.421Z,5.15
2018-10-03T14:13:11.036Z,5.50
2018-10-03T14:15:38.646Z,5.67
2018-10-03T14:18:06.181Z,5.03
2018-10-03T14:20:33.805Z,5.65
2018-10-03T14:23:01.479Z,6.22
2018-10-03T14:25:29.154Z,5.55
2018-10-03T14:27:56.720Z,5.53
2018-10-03T14:30:24.385Z,6.35
2018-10-03T14:32:51.994Z,5.70
2018-10-03T14:35:19.587Z,6.55
2018-10-03T14:37:47.181Z,6.15
2018-10-03T14:40:14.838Z,6.25
2018-10-03T14:42:42.563Z,6.03
2018-10-03T14:45:10.077Z,5.62
2018-10-03T14:47:37.692Z,5.37
2018-10-03T14:50:05.931Z,6.03
2018-10-03T14:52:33.597Z,6.12
2018-10-03T14:55:01.325Z,5.55
2018-10-03T14:57:28.922Z,4.33
2018-10-03T14:59:56.472Z,5.20
2018-10-03T15:02:24.099Z,5.50
2018-10-03T15:04:51.737Z,5.10
2018-10-03T15:07:20.705Z,5.22
2018-10-03T15:09:48.280Z,5.55
2018-10-03T15:12:15.891Z,6.67
2018-10-03T15:14:43.450Z,5.45
2018-10-03T15:17:11.165Z,5.80
2018-10-03T15:19:38.846Z,4.90
2018-10-03T15:22:06.435Z,5.20
2018-10-03T15:24:34.102Z,4.60
2018-10-03T15:27:01.578Z,4.62
2018-10-03T15:29:29.221Z,5.92
2018-10-03T15:31:56.772Z,4.90
2018-10-03T15:34:24.533Z,5.78
2018-10-03T15:36:52.161Z,4.90
2018-10-03T15:39:19.743Z,4.90
2018-10-03T15:41:47.290Z,5.72
2018-10-03T15:44:14.960Z,4.90
2018-10-03T15:46:42.508Z,5.15
2018-10-03T15:49:10.017Z,4.70
2018-10-03T15:51:37.634Z,4.55
2018-10-03T15:54:05.253Z,5.30
2018-10-03T15:56:32.884Z,5.17
2018-10-03T15:59:01.001Z,5.28
2018-10-03T16:01:28.637Z,5.60
2018-10-03T16:03:56.256Z,4.85
2018-10-03T16:06:23.908Z,4.17
2018-10-03T16:08:51.450Z,4.62
2018-10-03T16:11:18.983Z,5.25
2018-10-03T16:13:46.658Z,5.15
2018-10-03T16:16:14.190Z,5.17
2018-10-03T16:18:41.811Z,5.10
2018-10-03T16:21:09.347Z,5.55
2018-10-03T16:23:36.921Z,5.00
2018-10-03T16:26:04.576Z,4.10
2018-10-03T16:28:32.191Z,4.58
2018-10-03T16:30:59.825Z,4.70
2018-10-03T16:33:27.442Z,5.75
2018-10-03T16:35:55.056Z,5.60
2018-10-03T16:38:22.691Z,6.90
2018-10-03T16:40:50.263Z,6.87
2018-10-03T16:43:17.968Z,5.83
2018-10-03T16:45:45.562Z,6.53
2018-10-03T16:48:13.205Z,5.28
2018-10-03T16:50:40.800Z,5.87
2018-10-03T16:53:08.378Z,7.72
2018-10-03T16:55:36.031Z,8.60
2018-10-03T16:58:03.634Z,6.75
2018-10-03T17:00:31.345Z,6.47
2018-10-03T17:02:58.942Z,6.00
2018-10-03T17:05:27.546Z,5.58
2018-10-03T17:07:55.297Z,6.65
2018-10-03T17:10:22.811Z,6.42
2018-10-03T17:12:51.035Z,5.97
2018-10-03T17:15:18.631Z,6.67
2018-10-03T17:17:46.169Z,6.05
2018-10-03T17:20:15.953Z,6.03
2018-10-03T17:22:43.511Z,6.33
2018-10-03T17:25:11.192Z,5.67
2018-10-03T17:27:43.706Z,5.60
2018-10-03T17:30:11.351Z,7.00
2018-10-03T17:32:39.565Z,6.40
2018-10-03T17:35:07.865Z,6.00
2018-10-03T17:37:35.358Z,6.00
2018-10-03T17:40:07.755Z,5.33
2018-10-03T17:42:39.487Z,5.30
2018-10-03T17:45:24.105Z,5.12
2018-10-03T17:47:58.827Z,4.75
2018-10-03T17:50:29.282Z,4.65
2018-10-03T17:52:58.714Z,4.60
2018-10-03T17:55:28.027Z,6.50
2018-10-03T17:57:55.628Z,8.85
2018-10-03T18:00:23.295Z,8.50
2018-10-03T18:02:50.831Z,8.53
2018-10-03T18:05:18.390Z,7.60
2018-10-03T18:07:46.003Z,8.65
2018-10-03T18:10:13.548Z,7.95
2018-10-03T18:12:41.194Z,8.00
2018-10-03T18:15:08.779Z,7.97
2018-10-03T18:17:36.429Z,7.70
2018-10-03T18:20:04.057Z,7.55
2018-10-03T18:22:31.750Z,7.95
2018-10-03T18:24:59.331Z,8.30
2018-10-03T18:27:27.000Z,7.55
2018-10-03T18:29:54.638Z,7.12
2018-10-03T18:32:22.425Z,7.78
2018-10-03T18:34:50.114Z,7.25
2018-10-03T18:37:17.902Z,6.20
2018-10-03T18:39:45.853Z,6.55
2018-10-03T18:42:13.776Z,6.83
2018-10-03T18:44:41.712Z,7.92
2018-10-03T18:47:09.610Z,7.37
2018-10-03T18:49:37.610Z,5.85
2018-10-03T18:52:05.508Z,6.50
2018-10-03T18:54:33.525Z,6.37
2018-10-03T18:57:01.784Z,5.60
2018-10-03T18:59:29.701Z,5.95
2018-10-03T19:01:57.649Z,6.28
2018-10-03T19:04:25.597Z,6.22
2018-10-03T19:06:53.574Z,7.30
2018-10-03T19:09:21.462Z,6.35
2018-10-03T19:11:49.405Z,6.90
2018-10-03T19:14:17.243Z,7.22
2018-10-03T19:16:45.154Z,7.10
2018-10-03T19:19:13.010Z,7.40
2018-10-03T19:21:40.969Z,7.20
2018-10-03T19:24:08.940Z,6.85
2018-10-03T19:26:36.960Z,7.30
2018-10-03T19:29:04.769Z,7.00
2018-10-03T19:31:33.633Z,6.65
2018-10-03T19:34:01.867Z,8.00
2018-10-03T19:36:29.764Z,6.92
2018-10-03T19:38:57.651Z,6.95
2018-10-03T19:41:25.417Z,6.80
2018-10-03T19:43:53.355Z,6.60
2018-10-03T19:46:21.009Z,6.55
2018-10-03T19:48:48.897Z,6.78
2018-10-03T19:51:16.477Z,5.92
2018-10-03T19:53:44.100Z,6.72
2018-10-03T19:56:11.679Z,6.20
2018-10-03T19:58:39.314Z,6.10
2018-10-03T20:01:06.907Z,6.60
2018-10-03T20:03:34.563Z,6.53
2018-10-03T20:06:02.142Z,5.55
2018-10-03T20:08:29.781Z,6.30
2018-10-03T20:10:57.886Z,6.15
2018-10-03T20:13:25.525Z,6.45
2018-10-03T20:15:53.201Z,6.50
2018-10-03T20:18:21.367Z,6.05
2018-10-03T20:20:49.004Z,6.33
2018-10-03T20:23:16.568Z,6.67
2018-10-03T20:25:44.161Z,6.83
2018-10-03T20:28:11.694Z,6.75
2018-10-03T20:30:39.294Z,7.28
2018-10-03T20:33:06.813Z,7.42
2018-10-03T20:35:34.394Z,7.35
2018-10-03T20:38:02.106Z,7.85
2018-10-03T20:40:29.722Z,7.42
2018-10-03T20:42:57.326Z,8.05
2018-10-03T20:45:24.933Z,7.97
2018-10-03T20:47:52.484Z,7.47
2018-10-03T20:50:20.079Z,7.65
2018-10-03T20:52:47.594Z,7.70
2018-10-03T20:55:15.186Z,7.95
2018-10-03T20:57:42.722Z,7.22
2018-10-03T21:00:10.406Z,7.70
2018-10-03T21:02:37.885Z,7.55
2018-10-03T21:05:05.590Z,9.28
2018-10-03T21:07:33.198Z,7.72
2018-10-03T21:10:00.978Z,9.28
2018-10-03T21:12:28.528Z,9.10
2018-10-03T21:14:56.041Z,9.00
2018-10-03T21:17:23.583Z,9.05
2018-10-03T21:19:51.082Z,8.70
2018-10-03T21:22:18.653Z,9.05
2018-10-03T21:24:46.163Z,9.63
2018-10-03T21:27:13.778Z,9.40
2018-10-03T21:29:41.270Z,9.20
2018-10-03T21:32:08.840Z,8.70
2018-10-03T21:34:36.412Z,8.33
2018-10-03T21:37:03.998Z,8.35
2018-10-03T21:39:31.536Z,7.62
2018-10-03T21:41:59.204Z,8.55
2018-10-03T21:44:26.688Z,7.90
2018-10-03T21:46:54.370Z,7.40
2018-10-03T21:49:21.843Z,7.75
2018-10-03T21:51:49.464Z,7.20
2018-10-03T21:54:17.006Z,7.53
2018-10-03T21:56:44.524Z,8.03
2018-10-03T21:59:12.061Z,7.40
2018-10-03T22:01:39.638Z,7.12
2018-10-03T22:04:07.596Z,7.75
2018-10-03T22:06:35.122Z,8.58
2018-10-03T22:09:03.910Z,8.38
2018-10-03T22:11:31.647Z,8.68
2018-10-03T22:13:59.236Z,8.00
2018-10-03T22:16:26.733Z,8.33
2018-10-03T22:18:54.274Z,8.68
2018-10-03T22:21:21.810Z,9.15
2018-10-03T22:23:49.417Z,8.73
2018-10-03T22:26:16.888Z,8.88
2018-10-03T22:28:44.455Z,9.25
2018-10-03T22:31:12.063Z,9.95
2018-10-03T22:33:39.563Z,9.73
2018-10-03T22:36:07.115Z,9.83
2018-10-03T22:38:34.922Z,9.48
2018-10-03T22:41:02.794Z,10.03
2018-10-03T22:43:30.427Z,8.30
2018-10-03T22:45:58.006Z,9.23
2018-10-03T22:48:25.474Z,9.70
2018-10-03T22:50:52.984Z,10.03
2018-10-03T22:53:20.558Z,11.43
2018-10-03T22:55:48.074Z,9.88
2018-10-03T22:58:15.661Z,10.40
2018-10-03T23:00:43.190Z,9.60
2018-10-03T23:03:10.778Z,9.73
2018-10-03T23:05:38.851Z,9.73
2018-10-03T23:08:07.147Z,8.68
2018-10-03T23:10:34.654Z,9.15
2018-10-03T23:13:02.258Z,8.45
2018-10-03T23:15:29.747Z,9.50
2018-10-03T23:17:57.344Z,9.35
2018-10-03T23:20:24.847Z,9.18
2018-10-03T23:22:52.490Z,9.05
2018-10-03T23:25:20.031Z,10.70
2018-10-03T23:27:47.611Z,10.18
2018-10-03T23:30:15.169Z,9.63
2018-10-03T23:32:42.725Z,9.70
2018-10-03T23:35:10.311Z,10.72
2018-10-03T23:37:37.802Z,10.90
2018-10-03T23:40:05.341Z,11.28
2018-10-03T23:42:32.992Z,11.03
2018-10-03T23:45:00.813Z,10.30
2018-10-03T23:47:28.334Z,11.38
2018-10-03T23:49:55.831Z,10.30
2018-10-03T23:52:23.457Z,10.08
2018-10-03T23:54:50.995Z,10.72
2018-10-03T23:57:18.618Z,9.55
2018-10-03T23:59:46.099Z,11.20
